sensor_id;sensor_type;location;lat;lon;timestamp;P1;durP1;ratioP1;P2;durP2;ratioP2
36259;SDS011;22296;50.824;5.644;2023-04-24T00:01:07;2.70;;;2.00;;
36259;SDS011;22296;50.824;5.644;2023-04-24T00:03:35;3.70;;;2.30;;
36259;SDS011;22296;50.824;5.644;2023-04-24T00:06:03;3.67;;;2.07;;
36259;SDS011;22296;50.824;5.644;2023-04-24T00:08:31;3.05;;;1.90;;
36259;SDS011;22296;50.824;5.644;2023-04-24T00:10:58;3.70;;;2.22;;
36259;SDS011;22296;50.824;5.644;2023-04-24T00:13:25;3.15;;;2.03;;
36259;SDS011;22296;50.824;5.644;2023-04-24T00:15:55;3.78;;;2.08;;
36259;SDS011;22296;50.824;5.644;2023-04-24T00:18:22;4.18;;;2.38;;
36259;SDS011;22296;50.824;5.644;2023-04-24T00:20:48;4.05;;;2.25;;
36259;SDS011;22296;50.824;5.644;2023-04-24T00:23:15;3.70;;;2.40;;
36259;SDS011;22296;50.824;5.644;2023-04-24T00:25:42;3.90;;;2.10;;
36259;SDS011;22296;50.824;5.644;2023-04-24T00:28:09;3.78;;;2.30;;
36259;SDS011;22296;50.824;5.644;2023-04-24T00:30:35;4.22;;;2.80;;
36259;SDS011;22296;50.824;5.644;2023-04-24T00:33:02;3.10;;;2.10;;
36259;SDS011;22296;50.824;5.644;2023-04-24T00:35:29;3.55;;;1.95;;
36259;SDS011;22296;50.824;5.644;2023-04-24T00:37:56;5.43;;;2.47;;
36259;SDS011;22296;50.824;5.644;2023-04-24T00:40:23;4.85;;;2.20;;
36259;SDS011;22296;50.824;5.644;2023-04-24T00:42:50;2.90;;;2.10;;
36259;SDS011;22296;50.824;5.644;2023-04-24T00:45:16;2.75;;;2.13;;
36259;SDS011;22296;50.824;5.644;2023-04-24T00:47:43;3.15;;;2.17;;
36259;SDS011;22296;50.824;5.644;2023-04-24T00:50:11;4.03;;;2.10;;
36259;SDS011;22296;50.824;5.644;2023-04-24T00:52:40;3.53;;;2.60;;
36259;SDS011;22296;50.824;5.644;2023-04-24T00:55:07;3.60;;;2.45;;
36259;SDS011;22296;50.824;5.644;2023-04-24T00:57:34;4.07;;;2.38;;
36259;SDS011;22296;50.824;5.644;2023-04-24T01:00:02;3.58;;;2.38;;
36259;SDS011;22296;50.824;5.644;2023-04-24T01:02:29;3.78;;;2.35;;
36259;SDS011;22296;50.824;5.644;2023-04-24T01:04:56;3.25;;;2.20;;
36259;SDS011;22296;50.824;5.644;2023-04-24T01:07:23;3.72;;;2.08;;
36259;SDS011;22296;50.824;5.644;2023-04-24T01:09:53;3.92;;;2.70;;
36259;SDS011;22296;50.824;5.644;2023-04-24T01:12:20;3.78;;;2.40;;
36259;SDS011;22296;50.824;5.644;2023-04-24T01:14:47;2.55;;;1.90;;
36259;SDS011;22296;50.824;5.644;2023-04-24T01:17:16;3.25;;;2.28;;
36259;SDS011;22296;50.824;5.644;2023-04-24T01:19:43;4.60;;;2.33;;
36259;SDS011;22296;50.824;5.644;2023-04-24T01:22:13;3.55;;;2.30;;
36259;SDS011;22296;50.824;5.644;2023-04-24T01:24:41;3.38;;;2.40;;
36259;SDS011;22296;50.824;5.644;2023-04-24T01:27:10;4.00;;;2.38;;
36259;SDS011;22296;50.824;5.644;2023-04-24T01:29:38;3.10;;;2.10;;
36259;SDS011;22296;50.824;5.644;2023-04-24T01:32:06;3.35;;;2.25;;
36259;SDS011;22296;50.824;5.644;2023-04-24T01:34:33;4.07;;;2.13;;
36259;SDS011;22296;50.824;5.644;2023-04-24T01:37:00;3.40;;;2.30;;
36259;SDS011;22296;50.824;5.644;2023-04-24T01:39:27;5.80;;;2.60;;
36259;SDS011;22296;50.824;5.644;2023-04-24T01:41:55;6.00;;;2.38;;
36259;SDS011;22296;50.824;5.644;2023-04-24T01:44:23;3.15;;;2.30;;
36259;SDS011;22296;50.824;5.644;2023-04-24T01:46:49;2.88;;;2.15;;
36259;SDS011;22296;50.824;5.644;2023-04-24T01:49:17;2.47;;;1.90;;
36259;SDS011;22296;50.824;5.644;2023-04-24T01:51:44;3.95;;;2.00;;
36259;SDS011;22296;50.824;5.644;2023-04-24T01:54:11;2.38;;;2.00;;
36259;SDS011;22296;50.824;5.644;2023-04-24T01:56:41;3.00;;;2.20;;
36259;SDS011;22296;50.824;5.644;2023-04-24T01:59:11;3.25;;;2.05;;
36259;SDS011;22296;50.824;5.644;2023-04-24T02:01:38;3.38;;;2.22;;
36259;SDS011;22296;50.824;5.644;2023-04-24T02:04:06;4.55;;;2.17;;
36259;SDS011;22296;50.824;5.644;2023-04-24T02:06:34;2.90;;;1.90;;
36259;SDS011;22296;50.824;5.644;2023-04-24T02:09:01;3.83;;;2.00;;
36259;SDS011;22296;50.824;5.644;2023-04-24T02:11:30;2.95;;;2.33;;
36259;SDS011;22296;50.824;5.644;2023-04-24T02:13:56;3.33;;;2.30;;
36259;SDS011;22296;50.824;5.644;2023-04-24T02:16:23;3.63;;;2.30;;
36259;SDS011;22296;50.824;5.644;2023-04-24T02:18:51;5.00;;;2.70;;
36259;SDS011;22296;50.824;5.644;2023-04-24T02:21:18;2.78;;;2.10;;
36259;SDS011;22296;50.824;5.644;2023-04-24T02:23:44;2.17;;;1.83;;
36259;SDS011;22296;50.824;5.644;2023-04-24T02:26:12;3.40;;;2.25;;
36259;SDS011;22296;50.824;5.644;2023-04-24T02:28:39;3.78;;;2.17;;
36259;SDS011;22296;50.824;5.644;2023-04-24T02:31:06;3.47;;;2.45;;
36259;SDS011;22296;50.824;5.644;2023-04-24T02:33:33;3.60;;;2.65;;
36259;SDS011;22296;50.824;5.644;2023-04-24T02:35:59;2.70;;;2.25;;
36259;SDS011;22296;50.824;5.644;2023-04-24T02:38:26;3.47;;;2.22;;
36259;SDS011;22296;50.824;5.644;2023-04-24T02:40:53;3.28;;;2.47;;
36259;SDS011;22296;50.824;5.644;2023-04-24T02:43:20;2.97;;;2.08;;
36259;SDS011;22296;50.824;5.644;2023-04-24T02:45:47;3.42;;;2.30;;
36259;SDS011;22296;50.824;5.644;2023-04-24T02:48:14;2.50;;;2.22;;
36259;SDS011;22296;50.824;5.644;2023-04-24T02:50:41;4.30;;;2.22;;
36259;SDS011;22296;50.824;5.644;2023-04-24T02:53:07;4.45;;;2.60;;
36259;SDS011;22296;50.824;5.644;2023-04-24T02:55:34;3.95;;;2.60;;
36259;SDS011;22296;50.824;5.644;2023-04-24T02:58:02;2.88;;;2.58;;
36259;SDS011;22296;50.824;5.644;2023-04-24T03:00:29;3.40;;;2.35;;
36259;SDS011;22296;50.824;5.644;2023-04-24T03:02:56;4.35;;;2.53;;
36259;SDS011;22296;50.824;5.644;2023-04-24T03:05:23;3.63;;;2.15;;
36259;SDS011;22296;50.824;5.644;2023-04-24T03:07:50;4.25;;;2.30;;
36259;SDS011;22296;50.824;5.644;2023-04-24T03:10:20;4.10;;;2.33;;
36259;SDS011;22296;50.824;5.644;2023-04-24T03:12:49;3.75;;;2.58;;
36259;SDS011;22296;50.824;5.644;2023-04-24T03:15:17;4.18;;;2.63;;
36259;SDS011;22296;50.824;5.644;2023-04-24T03:17:44;3.13;;;2.17;;
36259;SDS011;22296;50.824;5.644;2023-04-24T03:20:11;2.85;;;1.90;;
36259;SDS011;22296;50.824;5.644;2023-04-24T03:22:38;3.88;;;2.58;;
36259;SDS011;22296;50.824;5.644;2023-04-24T03:25:06;3.50;;;2.57;;
36259;SDS011;22296;50.824;5.644;2023-04-24T03:27:36;3.88;;;2.42;;
36259;SDS011;22296;50.824;5.644;2023-04-24T03:30:15;3.22;;;2.33;;
36259;SDS011;22296;50.824;5.644;2023-04-24T03:32:49;2.58;;;2.38;;
36259;SDS011;22296;50.824;5.644;2023-04-24T03:35:21;3.15;;;2.60;;
36259;SDS011;22296;50.824;5.644;2023-04-24T03:37:49;3.22;;;2.05;;
36259;SDS011;22296;50.824;5.644;2023-04-24T03:40:36;3.47;;;2.65;;
36259;SDS011;22296;50.824;5.644;2023-04-24T03:43:11;4.03;;;2.65;;
36259;SDS011;22296;50.824;5.644;2023-04-24T03:45:38;3.35;;;2.28;;
36259;SDS011;22296;50.824;5.644;2023-04-24T03:48:05;3.67;;;2.75;;
36259;SDS011;22296;50.824;5.644;2023-04-24T03:50:33;3.97;;;2.35;;
36259;SDS011;22296;50.824;5.644;2023-04-24T03:53:00;3.78;;;2.55;;
36259;SDS011;22296;50.824;5.644;2023-04-24T03:55:34;3.55;;;2.60;;
36259;SDS011;22296;50.824;5.644;2023-04-24T03:58:02;3.58;;;2.60;;
36259;SDS011;22296;50.824;5.644;2023-04-24T04:00:29;3.08;;;2.25;;
36259;SDS011;22296;50.824;5.644;2023-04-24T04:03:18;4.00;;;2.20;;
36259;SDS011;22296;50.824;5.644;2023-04-24T04:05:45;3.67;;;2.22;;
36259;SDS011;22296;50.824;5.644;2023-04-24T04:08:12;3.35;;;2.40;;
36259;SDS011;22296;50.824;5.644;2023-04-24T04:10:39;3.78;;;2.60;;
36259;SDS011;22296;50.824;5.644;2023-04-24T04:13:06;4.00;;;2.60;;
36259;SDS011;22296;50.824;5.644;2023-04-24T04:15:34;3.13;;;2.17;;
36259;SDS011;22296;50.824;5.644;2023-04-24T04:18:01;2.15;;;1.95;;
36259;SDS011;22296;50.824;5.644;2023-04-24T04:20:28;4.65;;;2.83;;
36259;SDS011;22296;50.824;5.644;2023-04-24T04:22:55;3.38;;;2.45;;
36259;SDS011;22296;50.824;5.644;2023-04-24T04:25:33;3.17;;;2.42;;
36259;SDS011;22296;50.824;5.644;2023-04-24T04:28:00;3.45;;;2.63;;
36259;SDS011;22296;50.824;5.644;2023-04-24T04:30:28;2.58;;;2.30;;
36259;SDS011;22296;50.824;5.644;2023-04-24T04:33:02;4.47;;;2.25;;
36259;SDS011;22296;50.824;5.644;2023-04-24T04:35:30;3.30;;;2.42;;
36259;SDS011;22296;50.824;5.644;2023-04-24T04:37:57;3.35;;;2.60;;
36259;SDS011;22296;50.824;5.644;2023-04-24T04:40:25;3.70;;;2.40;;
36259;SDS011;22296;50.824;5.644;2023-04-24T04:42:57;3.13;;;2.33;;
36259;SDS011;22296;50.824;5.644;2023-04-24T04:45:27;3.42;;;2.35;;
36259;SDS011;22296;50.824;5.644;2023-04-24T04:48:33;3.60;;;2.55;;
36259;SDS011;22296;50.824;5.644;2023-04-24T04:51:01;3.40;;;2.25;;
36259;SDS011;22296;50.824;5.644;2023-04-24T04:53:29;3.10;;;2.20;;
36259;SDS011;22296;50.824;5.644;2023-04-24T04:55:55;4.75;;;2.53;;
36259;SDS011;22296;50.824;5.644;2023-04-24T04:58:27;3.72;;;2.15;;
36259;SDS011;22296;50.824;5.644;2023-04-24T05:00:57;2.35;;;2.10;;
36259;SDS011;22296;50.824;5.644;2023-04-24T05:03:35;7.47;;;2.35;;
36259;SDS011;22296;50.824;5.644;2023-04-24T05:06:06;3.35;;;2.50;;
36259;SDS011;22296;50.824;5.644;2023-04-24T05:08:36;3.30;;;2.25;;
36259;SDS011;22296;50.824;5.644;2023-04-24T05:11:06;2.40;;;2.20;;
36259;SDS011;22296;50.824;5.644;2023-04-24T05:13:33;3.03;;;2.03;;
36259;SDS011;22296;50.824;5.644;2023-04-24T05:16:21;12.77;;;3.50;;
36259;SDS011;22296;50.824;5.644;2023-04-24T05:18:50;3.50;;;2.50;;
36259;SDS011;22296;50.824;5.644;2023-04-24T05:21:22;3.65;;;2.45;;
36259;SDS011;22296;50.824;5.644;2023-04-24T05:23:50;4.32;;;2.40;;
36259;SDS011;22296;50.824;5.644;2023-04-24T05:26:29;3.72;;;2.33;;
36259;SDS011;22296;50.824;5.644;2023-04-24T05:28:58;3.30;;;2.40;;
36259;SDS011;22296;50.824;5.644;2023-04-24T05:31:25;2.30;;;1.98;;
36259;SDS011;22296;50.824;5.644;2023-04-24T05:33:52;3.90;;;2.40;;
36259;SDS011;22296;50.824;5.644;2023-04-24T05:36:18;3.42;;;2.10;;
36259;SDS011;22296;50.824;5.644;2023-04-24T05:38:45;3.83;;;2.33;;
36259;SDS011;22296;50.824;5.644;2023-04-24T05:41:13;5.60;;;2.72;;
36259;SDS011;22296;50.824;5.644;2023-04-24T05:43:40;4.68;;;2.42;;
36259;SDS011;22296;50.824;5.644;2023-04-24T05:46:07;4.25;;;2.45;;
36259;SDS011;22296;50.824;5.644;2023-04-24T05:48:33;3.28;;;2.40;;
36259;SDS011;22296;50.824;5.644;2023-04-24T05:51:02;3.20;;;2.40;;
36259;SDS011;22296;50.824;5.644;2023-04-24T05:53:29;4.38;;;2.65;;
36259;SDS011;22296;50.824;5.644;2023-04-24T05:55:57;5.97;;;2.88;;
36259;SDS011;22296;50.824;5.644;2023-04-24T05:58:23;4.35;;;2.80;;
36259;SDS011;22296;50.824;5.644;2023-04-24T06:00:50;6.25;;;2.65;;
36259;SDS011;22296;50.824;5.644;2023-04-24T06:03:17;5.50;;;2.83;;
36259;SDS011;22296;50.824;5.644;2023-04-24T06:05:46;3.33;;;2.30;;
36259;SDS011;22296;50.824;5.644;2023-04-24T06:08:13;3.47;;;2.47;;
36259;SDS011;22296;50.824;5.644;2023-04-24T06:10:42;2.63;;;2.13;;
36259;SDS011;22296;50.824;5.644;2023-04-24T06:13:10;6.18;;;2.83;;
36259;SDS011;22296;50.824;5.644;2023-04-24T06:15:41;6.40;;;2.90;;
36259;SDS011;22296;50.824;5.644;2023-04-24T06:18:18;7.30;;;2.95;;
36259;SDS011;22296;50.824;5.644;2023-04-24T06:20:47;6.13;;;2.65;;
36259;SDS011;22296;50.824;5.644;2023-04-24T06:23:14;4.30;;;2.35;;
36259;SDS011;22296;50.824;5.644;2023-04-24T06:25:41;3.03;;;2.30;;
36259;SDS011;22296;50.824;5.644;2023-04-24T06:28:10;5.05;;;2.60;;
36259;SDS011;22296;50.824;5.644;2023-04-24T06:30:37;5.25;;;3.10;;
36259;SDS011;22296;50.824;5.644;2023-04-24T06:33:03;4.72;;;2.92;;
36259;SDS011;22296;50.824;5.644;2023-04-24T06:35:45;3.72;;;2.53;;
36259;SDS011;22296;50.824;5.644;2023-04-24T06:38:11;5.57;;;2.63;;
36259;SDS011;22296;50.824;5.644;2023-04-24T06:40:38;5.72;;;3.00;;
36259;SDS011;22296;50.824;5.644;2023-04-24T06:43:05;6.78;;;3.47;;
36259;SDS011;22296;50.824;5.644;2023-04-24T06:45:32;7.60;;;4.00;;
36259;SDS011;22296;50.824;5.644;2023-04-24T06:47:59;11.35;;;5.43;;
36259;SDS011;22296;50.824;5.644;2023-04-24T06:50:26;13.65;;;6.82;;
36259;SDS011;22296;50.824;5.644;2023-04-24T06:52:53;16.40;;;7.93;;
36259;SDS011;22296;50.824;5.644;2023-04-24T06:55:19;20.27;;;9.13;;
36259;SDS011;22296;50.824;5.644;2023-04-24T06:57:46;20.40;;;10.85;;
36259;SDS011;22296;50.824;5.644;2023-04-24T07:00:13;26.13;;;11.40;;
36259;SDS011;22296;50.824;5.644;2023-04-24T07:02:40;24.17;;;11.98;;
36259;SDS011;22296;50.824;5.644;2023-04-24T07:05:07;27.52;;;13.45;;
36259;SDS011;22296;50.824;5.644;2023-04-24T07:07:34;32.58;;;14.68;;
36259;SDS011;22296;50.824;5.644;2023-04-24T07:10:04;39.75;;;17.20;;
36259;SDS011;22296;50.824;5.644;2023-04-24T07:12:31;37.70;;;17.13;;
36259;SDS011;22296;50.824;5.644;2023-04-24T07:15:00;38.85;;;18.52;;
36259;SDS011;22296;50.824;5.644;2023-04-24T07:17:26;41.55;;;20.30;;
36259;SDS011;22296;50.824;5.644;2023-04-24T07:19:53;45.90;;;21.63;;
36259;SDS011;22296;50.824;5.644;2023-04-24T07:22:20;53.88;;;26.10;;
36259;SDS011;22296;50.824;5.644;2023-04-24T07:24:47;53.22;;;24.85;;
36259;SDS011;22296;50.824;5.644;2023-04-24T07:27:13;57.38;;;28.67;;
36259;SDS011;22296;50.824;5.644;2023-04-24T07:29:41;60.70;;;30.38;;
36259;SDS011;22296;50.824;5.644;2023-04-24T07:32:09;74.07;;;33.63;;
36259;SDS011;22296;50.824;5.644;2023-04-24T07:34:36;70.30;;;34.10;;
36259;SDS011;22296;50.824;5.644;2023-04-24T07:37:03;76.60;;;35.33;;
36259;SDS011;22296;50.824;5.644;2023-04-24T07:39:30;75.45;;;36.42;;
36259;SDS011;22296;50.824;5.644;2023-04-24T07:41:58;73.57;;;38.08;;
36259;SDS011;22296;50.824;5.644;2023-04-24T07:44:25;81.05;;;39.30;;
36259;SDS011;22296;50.824;5.644;2023-04-24T07:46:52;76.18;;;39.70;;
36259;SDS011;22296;50.824;5.644;2023-04-24T07:49:19;84.05;;;42.35;;
36259;SDS011;22296;50.824;5.644;2023-04-24T07:51:46;81.05;;;40.55;;
36259;SDS011;22296;50.824;5.644;2023-04-24T07:54:13;83.43;;;40.38;;
36259;SDS011;22296;50.824;5.644;2023-04-24T07:56:40;82.53;;;41.83;;
36259;SDS011;22296;50.824;5.644;2023-04-24T08:01:36;82.85;;;42.33;;
36259;SDS011;22296;50.824;5.644;2023-04-24T08:04:03;85.82;;;43.45;;
36259;SDS011;22296;50.824;5.644;2023-04-24T08:06:30;88.00;;;43.60;;
36259;SDS011;22296;50.824;5.644;2023-04-24T08:08:58;90.38;;;43.90;;
36259;SDS011;22296;50.824;5.644;2023-04-24T08:11:26;86.75;;;42.90;;
36259;SDS011;22296;50.824;5.644;2023-04-24T08:13:53;78.10;;;41.67;;
36259;SDS011;22296;50.824;5.644;2023-04-24T08:16:21;84.28;;;43.00;;
36259;SDS011;22296;50.824;5.644;2023-04-24T08:18:50;80.90;;;41.03;;
36259;SDS011;22296;50.824;5.644;2023-04-24T08:21:17;82.90;;;42.47;;
36259;SDS011;22296;50.824;5.644;2023-04-24T08:23:45;81.65;;;41.58;;
36259;SDS011;22296;50.824;5.644;2023-04-24T08:26:12;85.43;;;42.30;;
36259;SDS011;22296;50.824;5.644;2023-04-24T08:28:40;78.22;;;41.20;;
36259;SDS011;22296;50.824;5.644;2023-04-24T08:31:06;78.65;;;39.28;;
36259;SDS011;22296;50.824;5.644;2023-04-24T08:33:33;78.80;;;41.47;;
36259;SDS011;22296;50.824;5.644;2023-04-24T08:36:03;75.07;;;40.05;;
36259;SDS011;22296;50.824;5.644;2023-04-24T08:38:31;73.40;;;38.40;;
36259;SDS011;22296;50.824;5.644;2023-04-24T08:40:58;76.57;;;38.40;;
36259;SDS011;22296;50.824;5.644;2023-04-24T08:43:26;71.05;;;36.75;;
36259;SDS011;22296;50.824;5.644;2023-04-24T08:45:55;75.13;;;38.50;;
36259;SDS011;22296;50.824;5.644;2023-04-24T08:48:23;69.05;;;36.35;;
36259;SDS011;22296;50.824;5.644;2023-04-24T08:50:57;65.70;;;35.15;;
36259;SDS011;22296;50.824;5.644;2023-04-24T08:53:25;71.15;;;36.72;;
36259;SDS011;22296;50.824;5.644;2023-04-24T08:55:54;68.05;;;34.33;;
36259;SDS011;22296;50.824;5.644;2023-04-24T08:58:25;66.90;;;34.47;;
36259;SDS011;22296;50.824;5.644;2023-04-24T09:00:55;65.18;;;33.17;;
36259;SDS011;22296;50.824;5.644;2023-04-24T09:03:22;62.03;;;33.35;;
36259;SDS011;22296;50.824;5.644;2023-04-24T09:05:49;64.45;;;32.40;;
36259;SDS011;22296;50.824;5.644;2023-04-24T09:08:17;63.28;;;32.30;;
36259;SDS011;22296;50.824;5.644;2023-04-24T09:10:45;58.00;;;30.97;;
36259;SDS011;22296;50.824;5.644;2023-04-24T09:13:15;59.67;;;30.45;;
36259;SDS011;22296;50.824;5.644;2023-04-24T09:15:43;61.47;;;31.42;;
36259;SDS011;22296;50.824;5.644;2023-04-24T09:18:09;59.38;;;31.48;;
36259;SDS011;22296;50.824;5.644;2023-04-24T09:23:26;58.13;;;30.40;;
36259;SDS011;22296;50.824;5.644;2023-04-24T09:25:56;55.00;;;30.42;;
36259;SDS011;22296;50.824;5.644;2023-04-24T09:28:27;54.80;;;29.10;;
36259;SDS011;22296;50.824;5.644;2023-04-24T09:31:03;53.58;;;30.73;;
36259;SDS011;22296;50.824;5.644;2023-04-24T09:33:30;54.67;;;29.27;;
36259;SDS011;22296;50.824;5.644;2023-04-24T09:35:57;53.60;;;29.27;;
36259;SDS011;22296;50.824;5.644;2023-04-24T09:38:35;55.72;;;28.70;;
36259;SDS011;22296;50.824;5.644;2023-04-24T09:41:04;55.70;;;28.70;;
36259;SDS011;22296;50.824;5.644;2023-04-24T09:43:32;47.95;;;26.63;;
36259;SDS011;22296;50.824;5.644;2023-04-24T09:46:04;50.30;;;27.67;;
36259;SDS011;22296;50.824;5.644;2023-04-24T09:48:33;49.78;;;26.35;;
36259;SDS011;22296;50.824;5.644;2023-04-24T09:51:02;52.05;;;26.23;;
36259;SDS011;22296;50.824;5.644;2023-04-24T09:53:30;49.58;;;26.48;;
36259;SDS011;22296;50.824;5.644;2023-04-24T09:56:03;47.70;;;25.40;;
36259;SDS011;22296;50.824;5.644;2023-04-24T09:58:35;46.95;;;24.02;;
36259;SDS011;22296;50.824;5.644;2023-04-24T10:01:02;42.83;;;23.27;;
36259;SDS011;22296;50.824;5.644;2023-04-24T10:03:30;45.38;;;23.75;;
36259;SDS011;22296;50.824;5.644;2023-04-24T10:05:59;42.88;;;24.15;;
36259;SDS011;22296;50.824;5.644;2023-04-24T10:08:32;42.17;;;23.20;;
36259;SDS011;22296;50.824;5.644;2023-04-24T10:11:00;41.42;;;23.13;;
36259;SDS011;22296;50.824;5.644;2023-04-24T10:13:28;37.83;;;22.50;;
36259;SDS011;22296;50.824;5.644;2023-04-24T10:15:55;42.95;;;21.63;;
36259;SDS011;22296;50.824;5.644;2023-04-24T10:18:22;39.35;;;21.75;;
36259;SDS011;22296;50.824;5.644;2023-04-24T10:20:51;37.92;;;21.35;;
36259;SDS011;22296;50.824;5.644;2023-04-24T10:23:21;38.45;;;21.63;;
36259;SDS011;22296;50.824;5.644;2023-04-24T10:25:49;39.58;;;21.70;;
36259;SDS011;22296;50.824;5.644;2023-04-24T10:28:18;39.30;;;22.42;;
36259;SDS011;22296;50.824;5.644;2023-04-24T10:30:45;39.88;;;21.95;;
36259;SDS011;22296;50.824;5.644;2023-04-24T10:33:12;38.58;;;20.52;;
36259;SDS011;22296;50.824;5.644;2023-04-24T10:35:42;39.50;;;21.50;;
36259;SDS011;22296;50.824;5.644;2023-04-24T10:38:12;38.58;;;22.00;;
36259;SDS011;22296;50.824;5.644;2023-04-24T10:40:42;39.47;;;22.05;;
36259;SDS011;22296;50.824;5.644;2023-04-24T10:43:10;38.60;;;22.08;;
36259;SDS011;22296;50.824;5.644;2023-04-24T10:45:42;38.53;;;21.70;;
36259;SDS011;22296;50.824;5.644;2023-04-24T10:48:27;40.47;;;21.83;;
36259;SDS011;22296;50.824;5.644;2023-04-24T10:50:54;40.15;;;22.15;;
36259;SDS011;22296;50.824;5.644;2023-04-24T10:53:22;35.97;;;21.60;;
36259;SDS011;22296;50.824;5.644;2023-04-24T10:55:51;36.90;;;21.73;;
36259;SDS011;22296;50.824;5.644;2023-04-24T11:01:30;36.35;;;20.55;;
36259;SDS011;22296;50.824;5.644;2023-04-24T11:04:02;37.83;;;20.92;;
36259;SDS011;22296;50.824;5.644;2023-04-24T11:06:31;37.33;;;20.48;;
36259;SDS011;22296;50.824;5.644;2023-04-24T11:11:31;35.33;;;20.33;;
36259;SDS011;22296;50.824;5.644;2023-04-24T11:16:30;33.75;;;19.10;;
36259;SDS011;22296;50.824;5.644;2023-04-24T11:26:56;30.30;;;18.90;;
36259;SDS011;22296;50.824;5.644;2023-04-24T11:35:12;30.52;;;17.50;;
36259;SDS011;22296;50.824;5.644;2023-04-24T11:37:51;27.52;;;16.40;;
36259;SDS011;22296;50.824;5.644;2023-04-24T11:40:39;30.77;;;18.00;;
36259;SDS011;22296;50.824;5.644;2023-04-24T11:43:06;26.90;;;16.63;;
36259;SDS011;22296;50.824;5.644;2023-04-24T11:45:35;29.00;;;17.85;;
36259;SDS011;22296;50.824;5.644;2023-04-24T11:48:02;30.55;;;17.13;;
36259;SDS011;22296;50.824;5.644;2023-04-24T11:50:30;28.80;;;16.80;;
36259;SDS011;22296;50.824;5.644;2023-04-24T11:52:57;30.70;;;17.40;;
36259;SDS011;22296;50.824;5.644;2023-04-24T11:55:25;31.33;;;17.40;;
36259;SDS011;22296;50.824;5.644;2023-04-24T11:57:54;31.40;;;17.05;;
36259;SDS011;22296;50.824;5.644;2023-04-24T12:03:07;33.50;;;19.47;;
36259;SDS011;22296;50.824;5.644;2023-04-24T12:05:35;31.38;;;17.38;;
36259;SDS011;22296;50.824;5.644;2023-04-24T12:08:03;27.77;;;17.40;;
36259;SDS011;22296;50.824;5.644;2023-04-24T12:10:30;30.42;;;18.23;;
36259;SDS011;22296;50.824;5.644;2023-04-24T12:12:59;34.65;;;20.38;;
36259;SDS011;22296;50.824;5.644;2023-04-24T12:15:26;32.42;;;18.05;;
36259;SDS011;22296;50.824;5.644;2023-04-24T12:17:54;35.35;;;20.55;;
36259;SDS011;22296;50.824;5.644;2023-04-24T12:20:26;34.30;;;19.10;;
36259;SDS011;22296;50.824;5.644;2023-04-24T12:22:55;38.40;;;19.85;;
36259;SDS011;22296;50.824;5.644;2023-04-24T12:25:24;35.63;;;21.88;;
36259;SDS011;22296;50.824;5.644;2023-04-24T12:28:08;40.05;;;22.25;;
36259;SDS011;22296;50.824;5.644;2023-04-24T12:30:48;42.47;;;23.02;;
36259;SDS011;22296;50.824;5.644;2023-04-24T12:33:18;44.33;;;24.45;;
36259;SDS011;22296;50.824;5.644;2023-04-24T12:35:47;42.47;;;24.35;;
36259;SDS011;22296;50.824;5.644;2023-04-24T12:38:15;50.00;;;27.83;;
36259;SDS011;22296;50.824;5.644;2023-04-24T12:40:42;52.10;;;28.90;;
36259;SDS011;22296;50.824;5.644;2023-04-24T12:43:13;59.40;;;33.30;;
36259;SDS011;22296;50.824;5.644;2023-04-24T12:45:41;57.20;;;32.90;;
36259;SDS011;22296;50.824;5.644;2023-04-24T12:48:08;70.78;;;37.60;;
36259;SDS011;22296;50.824;5.644;2023-04-24T12:50:34;91.00;;;49.05;;
36259;SDS011;22296;50.824;5.644;2023-04-24T12:53:01;107.30;;;59.97;;
36259;SDS011;22296;50.824;5.644;2023-04-24T12:55:28;130.48;;;71.90;;
36259;SDS011;22296;50.824;5.644;2023-04-24T12:57:54;144.98;;;81.78;;
36259;SDS011;22296;50.824;5.644;2023-04-24T13:00:22;161.68;;;89.07;;
36259;SDS011;22296;50.824;5.644;2023-04-24T13:02:49;174.25;;;97.25;;
36259;SDS011;22296;50.824;5.644;2023-04-24T13:05:16;180.23;;;96.78;;
36259;SDS011;22296;50.824;5.644;2023-04-24T13:07:43;180.30;;;100.95;;
36259;SDS011;22296;50.824;5.644;2023-04-24T13:10:10;179.13;;;96.82;;
36259;SDS011;22296;50.824;5.644;2023-04-24T13:12:37;183.13;;;103.93;;
36259;SDS011;22296;50.824;5.644;2023-04-24T13:15:05;191.52;;;104.80;;
36259;SDS011;22296;50.824;5.644;2023-04-24T13:17:32;205.52;;;109.03;;
36259;SDS011;22296;50.824;5.644;2023-04-24T13:19:59;216.82;;;115.93;;
36259;SDS011;22296;50.824;5.644;2023-04-24T13:22:26;223.15;;;120.25;;
36259;SDS011;22296;50.824;5.644;2023-04-24T13:24:53;225.10;;;122.70;;
36259;SDS011;22296;50.824;5.644;2023-04-24T13:27:20;233.73;;;127.97;;
36259;SDS011;22296;50.824;5.644;2023-04-24T13:29:47;239.68;;;125.85;;
36259;SDS011;22296;50.824;5.644;2023-04-24T13:32:14;245.13;;;130.18;;
36259;SDS011;22296;50.824;5.644;2023-04-24T13:34:41;254.85;;;133.60;;
36259;SDS011;22296;50.824;5.644;2023-04-24T13:37:08;254.95;;;136.73;;
36259;SDS011;22296;50.824;5.644;2023-04-24T13:39:34;253.40;;;136.05;;
36259;SDS011;22296;50.824;5.644;2023-04-24T13:42:02;250.43;;;138.07;;
36259;SDS011;22296;50.824;5.644;2023-04-24T13:44:30;234.32;;;125.25;;
36259;SDS011;22296;50.824;5.644;2023-04-24T13:46:57;252.45;;;133.77;;
36259;SDS011;22296;50.824;5.644;2023-04-24T13:49:25;243.80;;;131.18;;
36259;SDS011;22296;50.824;5.644;2023-04-24T13:51:53;247.35;;;134.32;;
36259;SDS011;22296;50.824;5.644;2023-04-24T13:54:21;256.00;;;136.37;;
36259;SDS011;22296;50.824;5.644;2023-04-24T13:56:49;260.20;;;139.00;;
36259;SDS011;22296;50.824;5.644;2023-04-24T13:59:19;259.55;;;137.43;;
36259;SDS011;22296;50.824;5.644;2023-04-24T14:01:46;252.82;;;139.07;;
36259;SDS011;22296;50.824;5.644;2023-04-24T14:04:14;258.08;;;139.90;;
36259;SDS011;22296;50.824;5.644;2023-04-24T14:06:41;253.68;;;137.32;;
36259;SDS011;22296;50.824;5.644;2023-04-24T14:09:07;250.68;;;131.07;;
36259;SDS011;22296;50.824;5.644;2023-04-24T14:11:34;253.15;;;132.32;;
36259;SDS011;22296;50.824;5.644;2023-04-24T14:14:01;243.75;;;131.40;;
36259;SDS011;22296;50.824;5.644;2023-04-24T14:16:29;240.73;;;127.78;;
36259;SDS011;22296;50.824;5.644;2023-04-24T14:18:57;235.55;;;127.47;;
36259;SDS011;22296;50.824;5.644;2023-04-24T14:21:24;239.90;;;128.23;;
36259;SDS011;22296;50.824;5.644;2023-04-24T14:23:50;224.68;;;121.75;;
36259;SDS011;22296;50.824;5.644;2023-04-24T14:26:17;232.48;;;122.80;;
36259;SDS011;22296;50.824;5.644;2023-04-24T14:28:44;229.18;;;119.82;;
36259;SDS011;22296;50.824;5.644;2023-04-24T14:31:11;222.88;;;119.25;;
36259;SDS011;22296;50.824;5.644;2023-04-24T14:33:37;214.95;;;115.72;;
36259;SDS011;22296;50.824;5.644;2023-04-24T14:36:04;205.57;;;108.22;;
36259;SDS011;22296;50.824;5.644;2023-04-24T14:38:32;201.05;;;108.88;;
36259;SDS011;22296;50.824;5.644;2023-04-24T14:40:59;190.82;;;104.55;;
36259;SDS011;22296;50.824;5.644;2023-04-24T14:43:28;187.25;;;105.30;;
36259;SDS011;22296;50.824;5.644;2023-04-24T14:45:56;184.98;;;100.78;;
36259;SDS011;22296;50.824;5.644;2023-04-24T14:48:23;179.85;;;101.32;;
36259;SDS011;22296;50.824;5.644;2023-04-24T14:50:49;178.07;;;98.18;;
36259;SDS011;22296;50.824;5.644;2023-04-24T14:53:16;170.73;;;96.80;;
36259;SDS011;22296;50.824;5.644;2023-04-24T14:55:43;163.52;;;93.03;;
36259;SDS011;22296;50.824;5.644;2023-04-24T14:58:10;169.65;;;94.80;;
36259;SDS011;22296;50.824;5.644;2023-04-24T15:00:37;162.05;;;89.93;;
36259;SDS011;22296;50.824;5.644;2023-04-24T15:03:04;166.00;;;93.28;;
36259;SDS011;22296;50.824;5.644;2023-04-24T15:05:31;159.75;;;89.05;;
36259;SDS011;22296;50.824;5.644;2023-04-24T15:07:58;147.68;;;85.40;;